Time;durP1;ratioP1;P1;durP2;ratioP2;P2;SDS_P1;SDS_P2;PMS_P1;PMS_P2;Temp;Humidity;BMP_temperature;BMP_pressure;BME280_temperature;BME280_humidity;BME280_pressure;Samples;Min_cycle;Max_cycle;Signal;HPM_P1;HPM_P2
2024/04/10 00:00:12;;;;;;;7.30;1.27;;;9.70;95.60;;;;;;5522747;25;20472;-69
2024/04/10 00:02:42;;;;;;;6.43;1.23;;;9.60;96.30;;;;;;5556002;25;20555;-70
2024/04/10 00:05:11;;;;;;;9.57;1.50;;;9.50;96.80;;;;;;5547282;25;20447;-70
2024/04/10 00:07:41;;;;;;;7.20;1.40;;;9.50;96.70;;;;;;5556595;25;20461;-69
2024/04/10 00:10:08;;;;;;;6.20;1.10;;;9.50;96.80;;;;;;5556052;25;20514;-68
2024/04/10 00:12:38;;;;;;;8.60;1.10;;;9.40;97.90;;;;;;5557030;25;20518;-68
2024/04/10 00:15:05;;;;;;;6.67;1.20;;;9.40;97.60;;;;;;5556002;25;20463;-69
2024/04/10 00:17:38;;;;;;;7.03;1.43;;;9.50;97.40;;;;;;5533935;25;20470;-69
2024/04/10 00:20:06;;;;;;;7.70;0.90;;;9.50;98.10;;;;;;5556041;25;20464;-69
2024/04/10 00:22:36;;;;;;;6.87;1.30;;;9.60;96.50;;;;;;5557582;25;20894;-70
2024/04/10 00:25:04;;;;;;;16.07;3.97;;;9.50;96.60;;;;;;5544678;25;20539;-69
2024/04/10 00:27:33;;;;;;;10.50;1.20;;;9.50;96.80;;;;;;5527465;25;20468;-69
2024/04/10 00:30:01;;;;;;;9.30;1.13;;;9.40;96.80;;;;;;5552460;25;20467;-69
2024/04/10 00:32:30;;;;;;;10.63;1.37;;;9.30;97.40;;;;;;5554510;25;20506;-69
2024/04/10 00:35:00;;;;;;;7.77;1.40;;;9.30;98.00;;;;;;5555833;25;20471;-70
2024/04/10 00:37:30;;;;;;;6.80;1.10;;;9.20;97.30;;;;;;5556008;25;20526;-70
2024/04/10 00:39:57;;;;;;;6.87;1.20;;;9.30;97.70;;;;;;5557249;25;20519;-69
2024/04/10 00:42:27;;;;;;;6.70;1.00;;;9.20;97.60;;;;;;5556293;25;20549;-70
2024/04/10 00:44:54;;;;;;;6.83;1.20;;;9.10;99.10;;;;;;5556146;25;20467;-70
2024/04/10 00:47:24;;;;;;;8.53;1.00;;;9.00;99.90;;;;;;5556176;25;20818;-67
2024/04/10 00:49:51;;;;;;;8.50;1.33;;;9.00;99.90;;;;;;5556691;25;21027;-70
2024/04/10 00:53:54;;;;;;;7.13;1.10;;;8.90;99.60;;;;;;5545228;25;21517;-70
2024/04/10 00:56:21;;;;;;;7.60;1.10;;;9.00;99.50;;;;;;5521873;25;20907;-70
2024/04/10 00:58:55;;;;;;;7.73;1.10;;;8.90;99.60;;;;;;5500427;25;20518;-70
2024/04/10 01:01:22;;;;;;;8.87;1.57;;;8.80;99.90;;;;;;5498272;26;20473;-70
2024/04/10 01:03:52;;;;;;;8.07;1.10;;;8.90;99.90;;;;;;5499726;25;20466;-70
2024/04/10 01:06:29;;;;;;;8.63;1.30;;;8.90;99.90;;;;;;5499716;25;20552;-70
2024/04/10 01:09:02;;;;;;;8.00;1.40;;;8.80;99.90;;;;;;5499865;25;20465;-70
2024/04/10 01:11:30;;;;;;;6.60;1.43;;;8.80;99.90;;;;;;5499946;25;20516;-70
2024/04/10 01:13:59;;;;;;;8.60;1.20;;;8.60;99.90;;;;;;5499209;25;21018;-71
2024/04/10 01:16:27;;;;;;;8.80;1.50;;;8.50;99.90;;;;;;5491340;25;20485;-70
2024/04/10 01:18:57;;;;;;;7.97;1.47;;;8.40;99.90;;;;;;5499941;25;20465;-68
2024/04/10 01:21:24;;;;;;;9.37;1.53;;;8.30;99.90;;;;;;5500427;25;20528;-70
2024/04/10 01:23:56;;;;;;;7.03;1.30;;;8.20;99.90;;;;;;5499949;25;20832;-70
2024/04/10 01:26:23;;;;;;;7.97;1.87;;;8.00;99.90;;;;;;5497798;25;20470;-70
2024/04/10 01:28:53;;;;;;;8.67;1.43;;;7.90;99.90;;;;;;5500253;25;21116;-70
2024/04/10 01:31:20;;;;;;;7.50;1.37;;;8.00;99.90;;;;;;5499856;25;20945;-70
2024/04/10 01:33:50;;;;;;;10.13;1.47;;;8.10;99.90;;;;;;5499493;25;20471;-70
2024/04/10 01:36:17;;;;;;;8.63;1.10;;;8.30;99.90;;;;;;5498929;25;20579;-69
2024/04/10 01:38:47;;;;;;;7.97;1.23;;;8.20;99.90;;;;;;5500111;25;20468;-69
2024/04/10 01:41:17;;;;;;;6.60;1.03;;;8.30;99.90;;;;;;5499745;25;20815;-70
2024/04/10 01:43:46;;;;;;;12.13;1.60;;;8.30;99.90;;;;;;5499781;25;20464;-70
2024/04/10 01:46:16;;;;;;;11.63;1.20;;;8.20;99.90;;;;;;5499380;25;24616;-70
2024/04/10 01:48:43;;;;;;;8.53;1.00;;;8.30;99.90;;;;;;5499716;25;20468;-70
2024/04/10 01:51:13;;;;;;;8.73;1.50;;;8.30;99.90;;;;;;5499189;25;20469;-70
2024/04/10 01:53:40;;;;;;;6.50;1.30;;;8.20;99.90;;;;;;5499215;25;20897;-70
2024/04/10 01:56:10;;;;;;;8.30;1.50;;;8.20;99.90;;;;;;5499088;25;20533;-70
2024/04/10 01:58:40;;;;;;;8.23;1.30;;;8.20;99.90;;;;;;5498923;25;20820;-70
2024/04/10 02:01:10;;;;;;;8.57;1.10;;;8.30;99.90;;;;;;5497938;26;20529;-70
2024/04/10 02:03:37;;;;;;;7.20;1.27;;;8.30;99.90;;;;;;5492488;25;20476;-70
2024/04/10 02:06:07;;;;;;;6.53;1.00;;;8.20;99.90;;;;;;5482960;26;20472;-71
2024/04/10 02:08:34;;;;;;;6.77;1.27;;;8.30;99.90;;;;;;5471799;26;21327;-70
2024/04/10 02:11:19;;;;;;;8.77;1.60;;;8.20;99.90;;;;;;5483325;26;20472;-70
2024/04/10 02:13:50;;;;;;;6.17;1.27;;;8.00;99.90;;;;;;5483294;26;20510;-70
2024/04/10 02:16:19;;;;;;;9.10;1.43;;;7.90;99.90;;;;;;5482459;26;20474;-69
2024/04/10 02:18:47;;;;;;;11.30;1.30;;;7.80;99.90;;;;;;5483201;26;20477;-70
2024/04/10 02:21:17;;;;;;;7.83;1.20;;;7.80;99.90;;;;;;5483386;26;21006;-70
2024/04/10 02:23:44;;;;;;;7.47;1.30;;;7.80;99.90;;;;;;5475213;26;21013;-70
2024/04/10 02:26:14;;;;;;;6.40;1.30;;;7.60;99.90;;;;;;5483086;26;20528;-70
2024/04/10 02:28:42;;;;;;;7.60;1.07;;;7.50;99.90;;;;;;5484166;26;21279;-69
2024/04/10 02:31:14;;;;;;;8.70;1.00;;;7.30;99.90;;;;;;5482943;26;20520;-70
2024/04/10 02:33:41;;;;;;;7.10;1.37;;;7.50;99.90;;;;;;5483470;26;20522;-69
2024/04/10 02:36:11;;;;;;;10.10;1.30;;;7.40;99.90;;;;;;5483101;26;20818;-70
2024/04/10 02:38:39;;;;;;;7.23;1.27;;;7.40;99.90;;;;;;5483435;26;20464;-70
2024/04/10 02:41:09;;;;;;;9.40;1.40;;;7.50;99.90;;;;;;5483451;26;20520;-70
2024/04/10 02:43:36;;;;;;;8.10;1.10;;;7.50;99.90;;;;;;5483739;26;20903;-70
2024/04/10 02:46:07;;;;;;;8.40;1.43;;;7.50;99.90;;;;;;5483142;26;20811;-70
2024/04/10 02:48:37;;;;;;;9.63;1.47;;;7.50;99.90;;;;;;5471939;26;20461;-70
2024/04/10 02:51:08;;;;;;;10.90;1.53;;;7.40;99.90;;;;;;5483303;26;20522;-70
2024/04/10 02:53:35;;;;;;;10.00;1.37;;;7.30;99.90;;;;;;5483397;26;21336;-70
2024/04/10 02:56:05;;;;;;;7.17;1.07;;;7.40;99.90;;;;;;5483008;26;20479;-70
2024/04/10 02:58:32;;;;;;;7.90;1.40;;;7.50;99.90;;;;;;5482702;26;20876;-69
2024/04/10 03:01:02;;;;;;;7.83;1.17;;;7.50;99.90;;;;;;5483039;26;20510;-70
2024/04/10 03:03:30;;;;;;;9.20;1.57;;;7.50;99.90;;;;;;5482839;26;20475;-70
2024/04/10 03:06:07;;;;;;;10.13;1.50;;;7.40;99.90;;;;;;5482580;26;20470;-68
2024/04/10 03:08:36;;;;;;;9.20;1.27;;;7.50;99.90;;;;;;5482828;26;21287;-70
2024/04/10 03:11:07;;;;;;;8.50;1.30;;;7.60;99.90;;;;;;5482553;26;20481;-70
2024/04/10 03:13:37;;;;;;;8.80;1.50;;;7.60;99.90;;;;;;5482467;26;20585;-70
2024/04/10 03:16:08;;;;;;;9.03;1.50;;;7.60;99.90;;;;;;5480756;26;20552;-70
2024/04/10 03:18:35;;;;;;;6.33;1.27;;;7.50;99.90;;;;;;5483019;26;20471;-70
2024/04/10 03:21:07;;;;;;;7.90;1.30;;;7.40;99.90;;;;;;5482676;26;21064;-71
2024/04/10 03:23:34;;;;;;;7.70;1.20;;;7.40;99.90;;;;;;5470746;26;20511;-70
2024/04/10 03:26:05;;;;;;;8.57;1.70;;;7.30;99.90;;;;;;5478505;26;20526;-68
2024/04/10 03:28:33;;;;;;;6.47;1.23;;;7.30;99.90;;;;;;5482602;26;20472;-70
2024/04/10 03:31:05;;;;;;;8.63;1.50;;;7.30;99.90;;;;;;5482836;26;20465;-70
2024/04/10 03:33:33;;;;;;;7.43;1.30;;;7.40;99.90;;;;;;5482158;26;20580;-70
2024/04/10 03:36:04;;;;;;;7.93;1.57;;;7.50;99.90;;;;;;5482527;26;20879;-70
2024/04/10 03:38:34;;;;;;;9.63;1.27;;;7.50;99.90;;;;;;5482154;26;20466;-70
2024/04/10 03:41:03;;;;;;;7.90;1.33;;;7.50;99.90;;;;;;5482241;26;20474;-70
2024/04/10 03:43:33;;;;;;;8.53;2.57;;;7.50;99.90;;;;;;5481832;26;20478;-71
2024/04/10 03:46:00;;;;;;;8.77;1.57;;;7.50;99.90;;;;;;5481978;26;21547;-70
2024/04/10 03:48:30;;;;;;;9.37;1.40;;;7.50;99.90;;;;;;5482289;26;21697;-70
2024/04/10 03:51:01;;;;;;;9.03;1.53;;;7.40;99.90;;;;;;5482434;26;20467;-69
2024/04/10 03:53:31;;;;;;;7.33;1.20;;;7.20;99.90;;;;;;5480816;26;20463;-71
2024/04/10 03:56:01;;;;;;;6.17;1.10;;;7.10;99.90;;;;;;5479460;26;20551;-68
2024/04/10 03:58:31;;;;;;;14.63;1.47;;;7.10;99.90;;;;;;5481924;26;20462;-70
2024/04/10 04:00:58;;;;;;;8.20;1.40;;;7.00;99.90;;;;;;5481376;26;20470;-69
2024/04/10 04:03:28;;;;;;;7.63;1.10;;;7.00;99.90;;;;;;5481466;26;20813;-70
2024/04/10 04:05:55;;;;;;;10.80;1.90;;;7.10;99.90;;;;;;5480790;26;20461;-70
2024/04/10 04:08:24;;;;;;;7.67;1.30;;;7.10;99.90;;;;;;5480016;26;20462;-70
2024/04/10 04:10:54;;;;;;;7.77;1.30;;;7.00;99.90;;;;;;5481832;26;20477;-70
2024/04/10 04:13:26;;;;;;;12.27;1.30;;;6.90;99.90;;;;;;5480740;26;20467;-70
2024/04/10 04:15:53;;;;;;;8.23;1.30;;;6.80;99.90;;;;;;5481335;26;20881;-69
2024/04/10 04:18:24;;;;;;;9.17;1.30;;;7.00;99.90;;;;;;5480922;26;20481;-70
2024/04/10 04:20:51;;;;;;;7.80;1.30;;;7.00;99.90;;;;;;5480834;26;20453;-70
2024/04/10 04:23:21;;;;;;;6.97;1.50;;;7.10;99.90;;;;;;5479999;26;23263;-70
2024/04/10 04:25:49;;;;;;;11.67;1.83;;;7.20;99.90;;;;;;5481337;26;20510;-71
2024/04/10 04:28:18;;;;;;;9.20;1.40;;;7.20;99.90;;;;;;5480297;26;20543;-70
2024/04/10 04:30:48;;;;;;;10.30;1.73;;;7.30;99.90;;;;;;5473465;26;20468;-70
2024/04/10 04:33:19;;;;;;;8.20;1.60;;;7.30;99.90;;;;;;5480766;26;20537;-69
2024/04/10 04:35:46;;;;;;;6.83;1.23;;;7.40;99.90;;;;;;5481577;26;20519;-70
2024/04/10 04:38:16;;;;;;;8.53;1.30;;;7.40;99.90;;;;;;5481173;26;20733;-69
2024/04/10 04:40:44;;;;;;;6.70;1.40;;;7.50;99.90;;;;;;5481529;26;20466;-69
2024/04/10 04:43:13;;;;;;;8.97;1.60;;;7.50;99.90;;;;;;5480220;26;20849;-70
2024/04/10 04:45:42;;;;;;;7.00;1.50;;;7.60;99.90;;;;;;5480631;26;20506;-70
2024/04/10 04:48:15;;;;;;;8.27;1.20;;;7.70;99.90;;;;;;5480228;26;20838;-68
2024/04/10 04:50:42;;;;;;;10.67;1.63;;;7.70;99.90;;;;;;5472088;26;20454;-70
2024/04/10 04:53:12;;;;;;;8.83;1.50;;;7.70;99.90;;;;;;5480119;26;20517;-71
2024/04/10 04:55:41;;;;;;;7.10;1.10;;;7.60;99.90;;;;;;5480143;26;20485;-70
2024/04/10 04:58:11;;;;;;;8.83;1.60;;;7.60;99.90;;;;;;5480326;26;20533;-71
2024/04/10 05:00:39;;;;;;;9.10;1.50;;;7.50;99.90;;;;;;5468999;26;20458;-70
2024/04/10 05:03:13;;;;;;;7.27;1.60;;;7.50;99.90;;;;;;5479114;26;20520;-70
2024/04/10 05:05:43;;;;;;;10.00;1.53;;;7.60;99.90;;;;;;5476596;26;20466;-71
2024/04/10 05:08:14;;;;;;;7.93;1.50;;;7.80;99.90;;;;;;5465878;26;20472;-70
2024/04/10 05:10:41;;;;;;;8.60;1.33;;;7.80;99.90;;;;;;5470643;26;20526;-70
2024/04/10 05:13:11;;;;;;;9.03;1.57;;;7.90;99.90;;;;;;5480108;26;21004;-70
2024/04/10 05:15:38;;;;;;;9.87;1.70;;;7.90;99.90;;;;;;5472482;26;20553;-69
2024/04/10 05:18:08;;;;;;;7.53;1.37;;;7.90;99.90;;;;;;5478777;26;20467;-70
2024/04/10 05:20:36;;;;;;;8.23;1.30;;;7.90;99.90;;;;;;5480569;26;20482;-70
2024/04/10 05:23:09;;;;;;;10.50;1.60;;;7.90;99.90;;;;;;5479997;26;20513;-69
2024/04/10 05:25:36;;;;;;;8.57;1.43;;;7.90;99.90;;;;;;5473864;26;20546;-68
2024/04/10 05:28:06;;;;;;;7.77;1.67;;;7.90;99.90;;;;;;5464468;26;20518;-69
2024/04/10 05:30:33;;;;;;;10.03;1.60;;;7.90;99.90;;;;;;5479937;26;20526;-69
2024/04/10 05:33:03;;;;;;;9.23;1.60;;;8.00;99.90;;;;;;5479721;26;20463;-69
2024/04/10 05:35:30;;;;;;;9.80;1.37;;;8.00;99.90;;;;;;5477785;26;20912;-70
2024/04/10 05:38:00;;;;;;;9.30;1.50;;;8.10;99.90;;;;;;5480047;26;20475;-69
2024/04/10 05:40:30;;;;;;;11.80;2.07;;;8.10;99.90;;;;;;5482255;26;20529;-69
2024/04/10 05:43:01;;;;;;;8.73;1.70;;;8.10;99.90;;;;;;5483932;26;20513;-69
2024/04/10 05:45:30;;;;;;;8.33;2.13;;;8.10;99.90;;;;;;5484434;26;20530;-69
2024/04/10 05:47:59;;;;;;;7.80;1.97;;;8.20;99.90;;;;;;5484239;26;20454;-69
2024/04/10 05:50:27;;;;;;;8.87;1.83;;;8.30;99.90;;;;;;5482881;26;20469;-68
2024/04/10 05:52:57;;;;;;;12.40;1.60;;;8.30;99.90;;;;;;5483681;26;20550;-69
2024/04/10 05:55:25;;;;;;;9.80;1.53;;;8.40;99.90;;;;;;5483740;26;20820;-69
2024/04/10 05:57:57;;;;;;;9.77;1.50;;;8.40;99.90;;;;;;5483515;26;20936;-69
2024/04/10 06:00:24;;;;;;;10.60;1.80;;;8.50;99.90;;;;;;5483427;26;20637;-70
2024/04/10 06:02:54;;;;;;;8.80;2.03;;;8.50;99.90;;;;;;5483556;26;20471;-69
2024/04/10 06:05:23;;;;;;;10.93;2.20;;;8.50;99.90;;;;;;5483784;26;20526;-69
2024/04/10 06:07:53;;;;;;;9.33;1.43;;;8.60;99.90;;;;;;5483533;26;20469;-70
2024/04/10 06:10:20;;;;;;;6.40;1.37;;;8.50;99.90;;;;;;5483474;26;20465;-70
2024/04/10 06:12:51;;;;;;;8.30;2.13;;;8.50;99.90;;;;;;5483618;26;20458;-70
2024/04/10 06:15:21;;;;;;;9.80;1.60;;;8.50;99.90;;;;;;5483216;26;20538;-69
2024/04/10 06:17:50;;;;;;;9.30;1.83;;;8.60;99.90;;;;;;5483706;26;20522;-69
2024/04/10 06:20:18;;;;;;;10.70;2.40;;;8.60;99.90;;;;;;5483393;26;20519;-68
2024/04/10 06:22:48;;;;;;;11.00;1.70;;;8.60;99.90;;;;;;5483783;26;20660;-69
2024/04/10 06:25:15;;;;;;;8.87;1.47;;;8.50;99.90;;;;;;5483170;26;21444;-70
2024/04/10 06:27:45;;;;;;;8.27;1.57;;;8.50;99.90;;;;;;5483310;26;20467;-68
2024/04/10 06:30:13;;;;;;;7.60;1.30;;;8.50;99.90;;;;;;5483027;26;20467;-70
2024/04/10 06:32:45;;;;;;;12.57;1.90;;;8.60;99.90;;;;;;5483411;26;21208;-70
2024/04/10 06:35:14;;;;;;;8.90;1.63;;;8.60;99.90;;;;;;5473238;26;20475;-70
2024/04/10 06:37:43;;;;;;;8.10;1.57;;;8.70;99.90;;;;;;5467257;26;20481;-70
2024/04/10 06:40:11;;;;;;;9.43;1.97;;;8.70;99.90;;;;;;5468540;26;20472;-70
2024/04/10 06:42:40;;;;;;;7.30;1.70;;;8.90;99.90;;;;;;5470190;26;21108;-70
2024/04/10 06:45:07;;;;;;;9.83;1.43;;;8.90;99.90;;;;;;5462123;26;20462;-69
2024/04/10 06:47:37;;;;;;;8.30;2.03;;;9.00;99.90;;;;;;5470848;26;20567;-70
2024/04/10 06:50:10;;;;;;;7.60;1.47;;;9.00;99.90;;;;;;5466677;26;21282;-69
2024/04/10 06:52:40;;;;;;;10.33;2.20;;;9.10;99.90;;;;;;5465794;26;20528;-70
2024/04/10 06:55:07;;;;;;;13.00;2.47;;;9.10;99.90;;;;;;5467215;26;20463;-70
2024/04/10 06:57:37;;;;;;;12.23;2.90;;;9.20;99.90;;;;;;5469627;26;20474;-70
2024/04/10 07:00:12;;;;;;;11.10;2.00;;;9.30;99.90;;;;;;5467421;26;20546;-70
2024/04/10 07:02:43;;;;;;;12.73;1.90;;;9.50;99.90;;;;;;5462801;26;20924;-70
2024/04/10 07:05:13;;;;;;;11.23;2.33;;;9.60;99.90;;;;;;5462680;26;20467;-70
2024/04/10 07:07:42;;;;;;;9.43;1.60;;;9.60;99.90;;;;;;5465242;26;20509;-70
2024/04/10 07:10:10;;;;;;;11.93;2.10;;;9.60;99.90;;;;;;5479737;26;20461;-70
2024/04/10 07:12:39;;;;;;;8.23;1.53;;;9.50;99.90;;;;;;5479689;26;20585;-70
2024/04/10 07:15:07;;;;;;;16.57;2.70;;;9.40;99.90;;;;;;5478840;26;20475;-69
2024/04/10 07:17:37;;;;;;;15.00;2.93;;;9.50;99.90;;;;;;5478761;26;20477;-71
2024/04/10 07:20:05;;;;;;;9.90;1.50;;;9.50;99.90;;;;;;5481522;26;20470;-69
2024/04/10 07:22:38;;;;;;;9.77;1.80;;;9.40;99.90;;;;;;5481528;26;21049;-69
2024/04/10 07:25:08;;;;;;;11.23;1.63;;;9.40;99.90;;;;;;5481180;26;20521;-69
2024/04/10 07:27:35;;;;;;;12.17;1.87;;;9.50;99.90;;;;;;5481608;26;20827;-69
2024/04/10 07:30:06;;;;;;;12.30;2.13;;;9.50;99.90;;;;;;5481771;26;20513;-72
2024/04/10 07:32:33;;;;;;;15.57;2.50;;;9.50;99.90;;;;;;5481622;26;20942;-70
2024/04/10 07:35:05;;;;;;;8.17;1.40;;;9.30;99.90;;;;;;5481357;26;20469;-69
2024/04/10 07:37:35;;;;;;;12.17;1.80;;;9.40;99.90;;;;;;5480934;26;20484;-69
2024/04/10 07:40:05;;;;;;;15.10;2.00;;;9.50;99.90;;;;;;5481544;26;20461;-69
2024/04/10 07:42:32;;;;;;;10.93;1.80;;;9.50;99.90;;;;;;5481196;26;20476;-71
2024/04/10 07:45:01;;;;;;;13.00;2.33;;;9.50;99.90;;;;;;5480871;26;20519;-70
2024/04/10 07:47:28;;;;;;;8.50;1.50;;;9.70;99.90;;;;;;5480518;26;20533;-70
2024/04/10 07:49:58;;;;;;;12.20;2.03;;;9.80;99.90;;;;;;5481301;26;20475;-71
2024/04/10 07:52:25;;;;;;;10.80;2.30;;;9.90;99.90;;;;;;5480604;26;20483;-71
2024/04/10 07:54:58;;;;;;;16.53;2.43;;;9.80;99.90;;;;;;5480714;26;20520;-71
2024/04/10 07:57:25;;;;;;;11.23;1.80;;;9.90;99.90;;;;;;5480448;26;20556;-70
2024/04/10 07:59:55;;;;;;;13.57;3.20;;;10.00;99.90;;;;;;5481095;26;21015;-71
2024/04/10 08:02:23;;;;;;;13.57;2.60;;;10.10;99.90;;;;;;5477337;26;20754;-71
2024/04/10 08:04:53;;;;;;;13.83;2.87;;;10.10;99.90;;;;;;5480813;26;20341;-70
2024/04/10 08:07:20;;;;;;;13.53;2.60;;;10.20;99.90;;;;;;5479652;26;21066;-71
2024/04/10 08:09:50;;;;;;;15.30;2.40;;;10.20;99.90;;;;;;5480922;26;21001;-71
2024/04/10 08:12:19;;;;;;;10.53;2.87;;;10.20;99.90;;;;;;5480518;26;20597;-70
2024/04/10 08:14:53;;;;;;;11.60;2.40;;;10.30;99.90;;;;;;5480444;26;20473;-71
2024/04/10 08:17:20;;;;;;;9.60;2.37;;;10.30;99.90;;;;;;5480160;26;20454;-71
2024/04/10 08:19:53;;;;;;;13.87;3.07;;;10.30;99.90;;;;;;5481125;26;20469;-70
2024/04/10 08:22:20;;;;;;;14.47;3.00;;;10.30;99.90;;;;;;5480387;26;20472;-71
2024/04/10 08:24:50;;;;;;;12.07;2.97;;;10.30;99.90;;;;;;5480578;26;20526;-70
2024/04/10 08:27:20;;;;;;;13.73;3.07;;;10.30;99.90;;;;;;5479976;26;20513;-71
2024/04/10 08:29:50;;;;;;;13.93;2.73;;;10.20;99.90;;;;;;5481171;26;21010;-70
2024/04/10 08:32:17;;;;;;;12.93;2.77;;;10.20;99.90;;;;;;5480427;26;20529;-71
2024/04/10 08:34:47;;;;;;;13.13;3.27;;;10.20;99.90;;;;;;5480572;26;20469;-70
2024/04/10 08:37:17;;;;;;;9.90;2.90;;;10.20;99.00;;;;;;5480234;26;20526;-71
2024/04/10 08:39:47;;;;;;;10.70;2.60;;;10.20;99.60;;;;;;5480904;26;20465;-70
2024/04/10 08:42:23;;;;;;;11.33;2.70;;;10.30;99.90;;;;;;5480171;26;20465;-71
2024/04/10 08:44:52;;;;;;;13.73;3.00;;;10.40;98.90;;;;;;5480098;26;20503;-71
2024/04/10 08:47:24;;;;;;;16.20;3.60;;;10.40;98.50;;;;;;5479712;26;20802;-71
2024/04/10 08:49:51;;;;;;;13.30;2.60;;;10.60;98.30;;;;;;5480225;26;21067;-71
2024/04/10 08:52:22;;;;;;;10.83;2.97;;;10.80;99.20;;;;;;5479539;26;20473;-70
2024/04/10 08:54:49;;;;;;;12.63;2.53;;;10.90;96.00;;;;;;5479917;26;20816;-70
2024/04/10 08:57:19;;;;;;;11.23;2.00;;;11.00;96.50;;;;;;5478882;26;20567;-70
2024/04/10 08:59:49;;;;;;;9.03;2.00;;;11.10;95.20;;;;;;5479958;26;20520;-71
2024/04/10 09:02:19;;;;;;;10.90;2.33;;;11.00;95.10;;;;;;5479746;26;20462;-70
2024/04/10 09:04:46;;;;;;;10.70;2.17;;;11.10;95.10;;;;;;5479513;26;20463;-70
2024/04/10 09:07:20;;;;;;;10.43;2.63;;;11.30;94.10;;;;;;5479218;26;20535;-71
2024/04/10 09:09:50;;;;;;;9.17;1.90;;;11.30;94.50;;;;;;5480357;26;20548;-70
2024/04/10 09:12:25;;;;;;;11.63;2.30;;;11.70;93.00;;;;;;5479775;26;20468;-71
2024/04/10 09:15:09;;;;;;;9.50;3.10;;;12.10;92.90;;;;;;5483371;26;21136;-70
2024/04/10 09:17:39;;;;;;;12.57;2.00;;;12.10;90.50;;;;;;5483205;26;20465;-70
2024/04/10 09:20:13;;;;;;;10.33;2.27;;;12.10;91.10;;;;;;5483821;26;20479;-70
2024/04/10 09:22:43;;;;;;;10.03;2.23;;;12.00;89.70;;;;;;5470261;26;20520;-71
2024/04/10 09:25:11;;;;;;;12.93;3.07;;;12.10;89.00;;;;;;5483047;26;20544;-70
2024/04/10 09:27:42;;;;;;;8.60;2.10;;;12.50;90.70;;;;;;5483159;26;20495;-71
2024/04/10 09:30:13;;;;;;;10.73;2.00;;;12.40;90.00;;;;;;5483043;26;20500;-70
2024/04/10 09:32:43;;;;;;;9.70;1.80;;;12.00;90.50;;;;;;5483187;26;20465;-72
2024/04/10 09:35:11;;;;;;;13.10;2.43;;;11.70;90.30;;;;;;5482815;26;20513;-71
2024/04/10 09:37:41;;;;;;;10.97;2.10;;;11.60;90.20;;;;;;5482744;26;20516;-70
2024/04/10 09:40:12;;;;;;;9.43;2.13;;;11.60;91.50;;;;;;5483178;26;20917;-70
2024/04/10 09:42:48;;;;;;;10.77;2.50;;;12.40;88.50;;;;;;5483305;26;20454;-70
2024/04/10 09:45:26;;;;;;;9.57;1.70;;;13.10;87.80;;;;;;5483533;26;20468;-70
2024/04/10 09:47:57;;;;;;;9.50;2.13;;;14.10;78.10;;;;;;5483090;26;20465;-70
2024/04/10 09:50:29;;;;;;;8.40;2.47;;;14.70;75.80;;;;;;5483364;26;20474;-71
2024/04/10 09:53:01;;;;;;;10.87;2.50;;;14.80;73.30;;;;;;5483004;26;20679;-69
2024/04/10 09:55:32;;;;;;;10.90;1.97;;;15.10;75.00;;;;;;5483965;26;20458;-70
2024/04/10 09:58:03;;;;;;;9.30;1.43;;;15.40;71.70;;;;;;5483780;26;20468;-70
2024/04/10 10:00:34;;;;;;;9.40;1.60;;;15.30;66.20;;;;;;5483165;26;20874;-70
2024/04/10 10:03:08;;;;;;;10.43;2.40;;;15.00;65.30;;;;;;5482958;26;20469;-70
2024/04/10 10:05:37;;;;;;;12.53;2.37;;;14.70;68.70;;;;;;5468802;26;20587;-71
2024/04/10 10:08:17;;;;;;;10.67;1.80;;;14.20;68.00;;;;;;5483048;26;20851;-71
2024/04/10 10:10:45;;;;;;;10.40;1.70;;;14.20;65.20;;;;;;5470360;26;21073;-71
2024/04/10 10:13:15;;;;;;;7.93;1.70;;;13.80;66.70;;;;;;5482552;26;20562;-70
2024/04/10 10:15:55;;;;;;;6.33;1.23;;;13.50;66.20;;;;;;5482806;26;21058;-68
2024/04/10 10:18:25;;;;;;;8.60;1.40;;;13.80;66.10;;;;;;5482480;26;20465;-69
2024/04/10 10:21:02;;;;;;;13.07;2.30;;;14.60;66.50;;;;;;5483243;26;20513;-70
2024/04/10 10:23:31;;;;;;;7.83;1.37;;;15.20;62.00;;;;;;5447597;26;20480;-69
2024/04/10 10:25:59;;;;;;;13.20;1.70;;;15.40;60.00;;;;;;5446203;26;20528;-69
2024/04/10 10:28:29;;;;;;;8.50;1.73;;;16.00;59.80;;;;;;5446413;26;20513;-70
2024/04/10 10:31:08;;;;;;;8.73;1.77;;;15.40;58.60;;;;;;5446590;26;20465;-70
2024/04/10 10:33:40;;;;;;;10.33;1.50;;;14.10;60.20;;;;;;5446272;26;20524;-71
2024/04/10 10:36:08;;;;;;;8.93;1.37;;;13.60;63.80;;;;;;5446941;26;20514;-72
2024/04/10 10:38:39;;;;;;;7.00;1.40;;;13.30;60.60;;;;;;5446836;26;21355;-69
2024/04/10 10:41:07;;;;;;;11.00;2.03;;;13.00;63.60;;;;;;5447209;26;20518;-69
2024/04/10 10:43:47;;;;;;;11.37;1.70;;;13.60;65.00;;;;;;5446839;26;20519;-69
2024/04/10 10:46:18;;;;;;;9.30;2.00;;;14.40;62.50;;;;;;5446760;26;21083;-70
2024/04/10 10:48:48;;;;;;;8.93;2.13;;;15.10;63.70;;;;;;5446582;26;20997;-70
2024/04/10 10:51:17;;;;;;;7.57;1.50;;;15.20;56.40;;;;;;5446763;26;20506;-70
2024/04/10 10:53:47;;;;;;;8.10;1.70;;;14.80;55.30;;;;;;5469240;26;21063;-70
2024/04/10 10:56:24;;;;;;;6.97;1.07;;;15.20;56.10;;;;;;5481739;26;20587;-69
2024/04/10 10:58:54;;;;;;;8.03;1.27;;;15.70;54.80;;;;;;5482404;26;20556;-69
2024/04/10 11:01:24;;;;;;;9.37;1.63;;;16.50;54.30;;;;;;5481969;26;20461;-70
2024/04/10 11:03:54;;;;;;;10.20;2.03;;;17.10;52.40;;;;;;5481785;26;20513;-70
2024/04/10 11:06:25;;;;;;;10.50;2.70;;;16.80;55.60;;;;;;5481435;26;20528;-70
2024/04/10 11:08:55;;;;;;;8.60;2.27;;;15.50;54.80;;;;;;5482496;26;21002;-70
2024/04/10 11:11:22;;;;;;;8.40;2.40;;;14.90;55.50;;;;;;5482034;26;20525;-70
2024/04/10 11:13:52;;;;;;;7.50;1.80;;;15.00;55.90;;;;;;5482207;26;20473;-69
2024/04/10 11:16:31;;;;;;;14.00;2.37;;;15.10;56.30;;;;;;5481220;26;20538;-70
2024/04/10 11:19:03;;;;;;;9.83;2.00;;;15.10;55.60;;;;;;5482307;26;20513;-70
2024/04/10 11:21:31;;;;;;;11.80;2.00;;;14.80;56.50;;;;;;5481586;26;20522;-71
2024/04/10 11:24:01;;;;;;;10.90;1.77;;;14.50;59.00;;;;;;5481561;26;20466;-70
2024/04/10 11:26:28;;;;;;;8.63;1.70;;;14.50;57.90;;;;;;5478003;26;20553;-70
2024/04/10 11:28:59;;;;;;;11.13;1.60;;;14.80;56.90;;;;;;5480865;26;20474;-71
2024/04/10 11:31:28;;;;;;;10.30;2.40;;;14.80;56.80;;;;;;5480906;26;20480;-71
2024/04/10 11:33:58;;;;;;;15.03;2.03;;;14.30;55.80;;;;;;5480777;26;21074;-71
2024/04/10 11:36:26;;;;;;;8.00;1.53;;;14.00;56.20;;;;;;5478910;26;20471;-70
2024/04/10 11:38:55;;;;;;;7.23;1.30;;;14.30;57.60;;;;;;5482634;26;20531;-70
2024/04/10 11:41:25;;;;;;;10.33;2.03;;;15.60;57.40;;;;;;5481898;26;20530;-70
2024/04/10 11:43:52;;;;;;;9.43;1.60;;;16.10;52.90;;;;;;5481949;26;20476;-71
2024/04/10 11:46:22;;;;;;;7.50;1.77;;;17.00;54.60;;;;;;5481797;26;21142;-71
2024/04/10 11:48:52;;;;;;;8.23;1.43;;;18.00;49.90;;;;;;5482634;26;20521;-70
2024/04/10 11:51:22;;;;;;;7.60;1.40;;;18.50;48.80;;;;;;5482179;26;20470;-70
2024/04/10 11:53:49;;;;;;;7.87;1.67;;;18.30;48.00;;;;;;5481874;26;20522;-72
2024/04/10 11:56:21;;;;;;;7.60;1.30;;;19.20;49.00;;;;;;5481854;26;20470;-71
2024/04/10 11:58:50;;;;;;;8.23;1.60;;;20.30;47.10;;;;;;5482398;26;20462;-72
2024/04/10 12:01:19;;;;;;;8.47;1.40;;;20.00;46.70;;;;;;5482300;26;20518;-71
2024/04/10 12:03:47;;;;;;;7.77;1.57;;;19.30;46.20;;;;;;5481453;26;21014;-71
2024/04/10 12:06:19;;;;;;;8.50;1.80;;;18.60;45.90;;;;;;5480942;26;20541;-70
2024/04/10 12:08:46;;;;;;;7.77;1.50;;;19.00;49.80;;;;;;5481852;26;20540;-71
2024/04/10 12:11:16;;;;;;;7.33;1.40;;;20.90;48.00;;;;;;5481554;26;20523;-69
2024/04/10 12:13:45;;;;;;;9.13;1.60;;;22.30;43.70;;;;;;5481761;26;20470;-70
2024/04/10 12:16:14;;;;;;;7.80;2.07;;;21.30;42.90;;;;;;5481628;26;20533;-70
2024/04/10 12:18:42;;;;;;;11.87;1.80;;;20.70;44.80;;;;;;5481558;26;20849;-70
2024/04/10 12:21:11;;;;;;;10.40;2.10;;;21.00;46.20;;;;;;5475087;26;20466;-71
2024/04/10 12:23:41;;;;;;;11.10;2.47;;;20.50;45.80;;;;;;5480782;26;20525;-70
2024/04/10 12:26:12;;;;;;;11.60;2.63;;;18.50;48.30;;;;;;5480978;26;20518;-70
2024/04/10 12:28:39;;;;;;;8.50;2.07;;;16.60;49.90;;;;;;5481418;25;20474;-70
2024/04/10 12:31:09;;;;;;;9.30;1.77;;;15.20;51.90;;;;;;5481647;26;20563;-71
2024/04/10 12:33:37;;;;;;;11.93;2.07;;;14.30;54.50;;;;;;5474363;26;20474;-71
2024/04/10 12:38:56;;;;;;;12.03;2.30;;;13.50;55.10;;;;;;5481270;26;20496;-72
2024/04/10 12:41:26;;;;;;;10.13;1.90;;;13.60;55.00;;;;;;5479971;26;20937;-70
2024/04/10 12:43:56;;;;;;;9.53;1.97;;;13.60;55.10;;;;;;5476260;26;20762;-70
2024/04/10 12:46:27;;;;;;;9.27;1.83;;;13.80;55.40;;;;;;5478840;26;21109;-70
2024/04/10 12:48:55;;;;;;;8.07;1.50;;;14.20;56.40;;;;;;5480557;26;20485;-70
2024/04/10 12:51:25;;;;;;;7.90;1.50;;;15.80;57.30;;;;;;5479188;26;20545;-71
2024/04/10 12:53:54;;;;;;;9.67;1.50;;;18.20;52.80;;;;;;5480530;26;20513;-71
2024/04/10 12:56:24;;;;;;;9.77;1.80;;;20.50;51.20;;;;;;5480379;26;20478;-69
2024/04/10 12:58:51;;;;;;;12.70;4.07;;;22.20;45.80;;;;;;5479887;26;20896;-70
2024/04/10 13:01:21;;;;;;;8.10;1.45;;;22.20;42.40;;;;;;5473675;26;20362;-70
2024/04/10 13:03:50;;;;;;;6.67;1.20;;;22.70;43.70;;;;;;5474465;26;20774;-71
2024/04/10 13:06:21;;;;;;;8.77;1.57;;;23.50;40.80;;;;;;5478726;26;20950;-70